createdAt,value
2019-01-12T00:01:11.226Z,18.53
2019-01-12T00:04:15.590Z,22.17
2019-01-12T00:07:19.900Z,20.07
2019-01-12T00:10:24.141Z,20.30
2019-01-12T00:13:28.460Z,19.83
2019-01-12T00:16:32.785Z,13.67
2019-01-12T00:19:37.094Z,19.63
2019-01-12T00:22:41.366Z,14.50
2019-01-12T00:25:45.670Z,17.50
2019-01-12T00:28:49.916Z,19.43
2019-01-12T00:31:54.230Z,15.70
2019-01-12T00:34:58.585Z,12.23
2019-01-12T00:38:02.867Z,8.90
2019-01-12T00:41:07.169Z,13.30
2019-01-12T00:44:11.459Z,19.73
2019-01-12T00:47:15.728Z,13.40
2019-01-12T00:50:20.244Z,10.80
2019-01-12T00:53:24.489Z,14.47
2019-01-12T00:56:28.792Z,15.73
2019-01-12T00:59:33.115Z,18.33
2019-01-12T01:02:37.389Z,8.20
2019-01-12T01:05:41.666Z,8.20
2019-01-12T01:08:45.995Z,25.77
2019-01-12T01:11:50.214Z,8.80
2019-01-12T01:14:54.576Z,14.03
2019-01-12T01:17:58.862Z,10.00
2019-01-12T01:21:03.151Z,14.73
2019-01-12T01:24:07.470Z,10.23
2019-01-12T01:27:11.826Z,13.67
2019-01-12T01:30:20.424Z,13.10
2019-01-12T01:33:28.021Z,13.40
2019-01-12T01:36:30.779Z,7.57
2019-01-12T01:39:35.065Z,5.23
2019-01-12T01:42:39.424Z,10.20
2019-01-12T01:45:43.769Z,8.80
2019-01-12T01:48:48.020Z,5.90
2019-01-12T01:51:52.455Z,9.53
2019-01-12T01:54:56.749Z,7.60
2019-01-12T01:58:01.090Z,6.40
2019-01-12T02:01:05.783Z,6.30
2019-01-12T02:04:10.056Z,4.83
2019-01-12T02:07:14.369Z,1.40
2019-01-12T02:10:22.876Z,1.53
2019-01-12T02:13:27.191Z,2.20
2019-01-12T02:16:31.446Z,2.80
2019-01-12T02:19:35.750Z,1.20
2019-01-12T02:22:39.986Z,2.67
2019-01-12T02:25:44.263Z,1.63
2019-01-12T02:28:48.515Z,1.60
2019-01-12T02:31:52.836Z,4.87
2019-01-12T02:34:57.134Z,2.17
2019-01-12T02:38:01.378Z,3.20
2019-01-12T02:41:05.672Z,2.83
2019-01-12T02:44:10.003Z,5.67
2019-01-12T02:47:14.255Z,5.33
2019-01-12T02:50:18.662Z,5.43
2019-01-12T02:53:22.954Z,5.17
2019-01-12T02:56:27.290Z,4.03
2019-01-12T02:59:31.639Z,5.30
2019-01-12T03:02:35.989Z,4.27
2019-01-12T03:05:40.301Z,2.93
2019-01-12T03:08:44.668Z,3.33
2019-01-12T03:11:49.003Z,3.57
2019-01-12T03:14:53.328Z,5.60
2019-01-12T03:17:57.627Z,2.37
2019-01-12T03:21:01.979Z,3.43
2019-01-12T03:24:06.405Z,4.60
2019-01-12T03:27:10.677Z,4.20
2019-01-12T03:30:19.124Z,2.63
2019-01-12T03:33:23.408Z,3.50
2019-01-12T03:36:27.793Z,3.50
2019-01-12T03:39:32.032Z,2.90
2019-01-12T03:42:36.376Z,3.50
2019-01-12T03:45:40.693Z,6.43
2019-01-12T03:48:44.994Z,3.80
2019-01-12T03:51:49.269Z,4.00
2019-01-12T03:54:53.610Z,5.27
2019-01-12T03:57:57.905Z,4.80
2019-01-12T04:01:02.281Z,3.67
2019-01-12T04:04:06.616Z,4.60
2019-01-12T04:07:10.977Z,5.40
2019-01-12T04:10:15.308Z,4.60
2019-01-12T04:13:19.598Z,2.67
2019-01-12T04:16:23.876Z,2.90
2019-01-12T04:19:28.234Z,5.87
2019-01-12T04:22:32.553Z,6.87
2019-01-12T04:25:36.814Z,4.63
2019-01-12T04:28:41.151Z,4.80
2019-01-12T04:31:45.513Z,4.27
2019-01-12T04:34:49.874Z,7.00
2019-01-12T04:37:54.232Z,12.20
2019-01-12T04:40:58.500Z,5.03
2019-01-12T04:44:02.817Z,9.57
2019-01-12T04:47:07.162Z,7.57
2019-01-12T04:50:13.955Z,3.03
2019-01-12T04:53:18.257Z,4.83
2019-01-12T04:56:22.581Z,3.13
2019-01-12T04:59:26.876Z,3.87
2019-01-12T05:02:31.221Z,4.40
2019-01-12T05:05:35.520Z,3.13
2019-01-12T05:08:39.814Z,5.10
2019-01-12T05:11:44.118Z,10.50
2019-01-12T05:14:48.401Z,4.00
2019-01-12T05:17:52.679Z,4.17
2019-01-12T05:20:56.929Z,5.10
2019-01-12T05:24:01.219Z,4.80
2019-01-12T05:27:05.511Z,5.43
2019-01-12T05:30:12.530Z,8.87
2019-01-12T05:33:16.828Z,4.30
2019-01-12T05:36:21.263Z,6.63
2019-01-12T05:39:25.567Z,6.13
2019-01-12T05:42:30.015Z,8.20
2019-01-12T05:45:34.391Z,11.87
2019-01-12T05:48:38.743Z,9.73
2019-01-12T05:51:43.097Z,8.07
2019-01-12T05:54:47.425Z,7.43
2019-01-12T05:57:51.699Z,6.53
2019-01-12T06:00:56.103Z,4.87
2019-01-12T06:04:00.408Z,5.27
2019-01-12T06:07:04.764Z,8.33
2019-01-12T06:10:09.376Z,5.97
2019-01-12T06:13:13.624Z,5.47
2019-01-12T06:16:17.928Z,4.70
2019-01-12T06:19:22.302Z,5.37
2019-01-12T06:22:26.557Z,3.93
2019-01-12T06:25:30.832Z,4.30
2019-01-12T06:28:35.093Z,4.20
2019-01-12T06:31:39.387Z,6.13
2019-01-12T06:34:43.712Z,8.00
2019-01-12T06:37:48.185Z,2.63
2019-01-12T06:40:52.574Z,6.03
2019-01-12T06:43:56.822Z,4.63
2019-01-12T06:47:01.115Z,2.60
2019-01-12T06:50:06.817Z,5.20
2019-01-12T06:53:11.184Z,3.73
2019-01-12T06:56:15.479Z,5.67
2019-01-12T06:59:19.793Z,8.37
2019-01-12T07:02:24.157Z,4.80
2019-01-12T07:05:28.749Z,3.30
2019-01-12T07:08:33.012Z,4.53
2019-01-12T07:11:37.394Z,5.90
2019-01-12T07:14:41.774Z,3.77
2019-01-12T07:17:46.162Z,3.40
2019-01-12T07:20:50.668Z,4.40
2019-01-12T07:23:55.053Z,5.00
2019-01-12T07:26:59.420Z,5.63
2019-01-12T07:30:05.069Z,7.50
2019-01-12T07:33:09.368Z,7.20
2019-01-12T07:36:13.668Z,7.93
2019-01-12T07:39:17.914Z,5.53
2019-01-12T07:42:22.231Z,8.77
2019-01-12T07:45:26.584Z,8.80
2019-01-12T07:48:30.850Z,9.10
2019-01-12T07:51:35.167Z,12.73
2019-01-12T07:54:39.493Z,11.30
2019-01-12T07:57:43.797Z,13.07
2019-01-12T08:00:48.138Z,11.03
2019-01-12T08:03:52.522Z,12.43
2019-01-12T08:06:56.771Z,11.67
2019-01-12T08:10:01.089Z,14.93
2019-01-12T08:13:05.385Z,13.33
2019-01-12T08:16:09.652Z,11.97
2019-01-12T08:19:14.003Z,8.80
2019-01-12T08:22:18.334Z,12.70
2019-01-12T08:25:22.668Z,11.20
2019-01-12T08:28:26.959Z,13.33
2019-01-12T08:31:31.459Z,13.87
2019-01-12T08:34:35.757Z,15.10
2019-01-12T08:37:40.048Z,12.00
2019-01-12T08:40:44.329Z,14.27
2019-01-12T08:43:48.649Z,11.77
2019-01-12T08:46:52.964Z,16.90
2019-01-12T08:49:57.279Z,13.77
2019-01-12T08:53:01.592Z,15.40
2019-01-12T08:56:06.033Z,18.33
2019-01-12T08:59:10.358Z,14.17
2019-01-12T09:02:14.679Z,20.80
2019-01-12T09:05:19.107Z,18.37
2019-01-12T09:08:23.475Z,15.73
2019-01-12T09:11:27.803Z,16.40
2019-01-12T09:14:32.149Z,16.13
2019-01-12T09:17:36.398Z,14.73
2019-01-12T09:20:40.679Z,14.77
2019-01-12T09:23:45.028Z,18.63
2019-01-12T09:26:49.319Z,18.63
2019-01-12T09:29:53.700Z,20.33
2019-01-12T09:32:57.984Z,15.50
2019-01-12T09:36:02.299Z,19.03
2019-01-12T09:39:09.008Z,19.27
2019-01-12T09:42:13.302Z,18.87
2019-01-12T09:45:18.077Z,25.33
2019-01-12T09:48:22.452Z,25.23
2019-01-12T09:51:26.839Z,23.87
2019-01-12T09:54:31.237Z,25.73
2019-01-12T09:57:35.569Z,24.93
2019-01-12T10:00:39.899Z,22.40
2019-01-12T10:03:44.284Z,22.77
2019-01-12T10:06:48.652Z,26.20
2019-01-12T10:09:53.009Z,29.50
2019-01-12T10:12:57.313Z,27.67
2019-01-12T10:16:01.629Z,31.17
2019-01-12T10:19:05.893Z,29.63
2019-01-12T10:22:10.308Z,28.57
2019-01-12T10:25:15.157Z,32.23
2019-01-12T10:28:19.492Z,31.50
2019-01-12T10:31:23.789Z,30.90
2019-01-12T10:34:28.123Z,34.10
2019-01-12T10:37:32.392Z,33.40
2019-01-12T10:40:36.689Z,32.60
2019-01-12T10:43:41.024Z,29.80
2019-01-12T10:46:46.233Z,33.83
2019-01-12T10:49:50.473Z,35.83
2019-01-12T10:52:56.402Z,39.83
2019-01-12T10:56:00.818Z,38.57
2019-01-12T10:59:06.248Z,39.10
2019-01-12T11:02:10.569Z,36.90
2019-01-12T11:05:15.034Z,42.87
2019-01-12T11:08:19.345Z,38.77
2019-01-12T11:11:23.627Z,40.13
2019-01-12T11:14:27.972Z,38.67
2019-01-12T11:17:32.243Z,43.40
2019-01-12T11:20:36.647Z,38.43
2019-01-12T11:23:40.951Z,36.27
2019-01-12T11:26:45.307Z,39.87
2019-01-12T11:29:49.609Z,38.40
2019-01-12T11:32:53.925Z,37.30
2019-01-12T11:35:58.244Z,30.77
2019-01-12T11:39:02.613Z,26.97
2019-01-12T11:42:06.940Z,32.03
2019-01-12T11:45:11.364Z,30.00
2019-01-12T11:48:15.678Z,29.93
2019-01-12T11:51:20.025Z,28.23
2019-01-12T11:54:24.296Z,26.77
2019-01-12T11:57:28.582Z,29.73
2019-01-12T12:00:32.945Z,29.03
2019-01-12T12:03:37.358Z,32.27
2019-01-12T12:06:41.776Z,30.30
2019-01-12T12:09:46.058Z,27.77
2019-01-12T12:12:50.448Z,28.40
2019-01-12T12:15:54.698Z,30.80
2019-01-12T12:18:59.036Z,31.60
2019-01-12T12:22:03.288Z,28.53
2019-01-12T12:25:07.741Z,29.67
2019-01-12T12:28:12.027Z,29.87
2019-01-12T12:31:16.388Z,34.00
2019-01-12T12:34:20.729Z,34.63
2019-01-12T12:37:25.017Z,31.00
2019-01-12T12:40:29.346Z,29.97
2019-01-12T12:43:34.836Z,33.20
2019-01-12T12:46:39.144Z,29.47
2019-01-12T12:49:43.424Z,30.83
2019-01-12T12:52:47.756Z,30.30
2019-01-12T12:55:52.110Z,31.20
2019-01-12T12:58:56.541Z,29.37
2019-01-12T13:02:00.864Z,31.53
2019-01-12T13:05:08.822Z,29.43
2019-01-12T13:08:13.184Z,38.93
2019-01-12T13:11:17.513Z,54.43
2019-01-12T13:14:21.816Z,36.50
2019-01-12T13:17:26.174Z,39.47
2019-01-12T13:20:30.658Z,32.20
2019-01-12T13:23:35.035Z,32.70
2019-01-12T13:26:39.358Z,31.07
2019-01-12T13:29:43.718Z,29.30
2019-01-12T13:32:49.727Z,27.70
2019-01-12T13:35:54.074Z,25.50
2019-01-12T13:39:01.414Z,27.53
2019-01-12T13:42:05.708Z,25.57
2019-01-12T13:45:11.772Z,30.60
2019-01-12T13:48:16.209Z,28.40
2019-01-12T13:51:20.486Z,29.77
2019-01-12T13:54:25.886Z,26.63
2019-01-12T13:57:30.273Z,35.40
2019-01-12T14:00:36.176Z,20.53
2019-01-12T14:03:40.476Z,22.30
2019-01-12T14:06:44.961Z,26.30
2019-01-12T14:09:49.282Z,19.77
2019-01-12T14:12:53.804Z,23.20
2019-01-12T14:15:58.148Z,19.33
2019-01-12T14:19:02.446Z,20.77
2019-01-12T14:22:06.775Z,20.23
2019-01-12T14:25:11.237Z,19.70
2019-01-12T14:28:15.607Z,16.50
2019-01-12T14:31:19.933Z,15.70
2019-01-12T14:34:24.292Z,18.13
2019-01-12T14:37:28.587Z,18.33
2019-01-12T14:40:33.098Z,21.23
2019-01-12T14:43:37.441Z,17.50
2019-01-12T14:46:41.784Z,20.33
2019-01-12T14:49:46.120Z,20.33
2019-01-12T14:52:50.738Z,23.67
2019-01-12T14:55:55.063Z,19.37
2019-01-12T14:58:59.403Z,17.17
2019-01-12T15:02:03.813Z,19.97
2019-01-12T15:05:10.090Z,22.90
2019-01-12T15:08:14.536Z,19.30
2019-01-12T15:11:18.912Z,18.10
2019-01-12T15:14:23.266Z,17.80
2019-01-12T15:17:27.642Z,17.50
2019-01-12T15:20:32.158Z,17.50
2019-01-12T15:23:36.508Z,22.17
2019-01-12T15:26:40.870Z,21.80
2019-01-12T15:29:45.242Z,15.33
2019-01-12T15:32:49.518Z,15.63
2019-01-12T15:35:53.826Z,13.23
2019-01-12T15:39:01.647Z,10.40
2019-01-12T15:42:04.322Z,7.70
2019-01-12T15:45:11.336Z,8.07
2019-01-12T15:48:15.711Z,8.40
2019-01-12T15:51:20.132Z,8.67
2019-01-12T15:54:24.519Z,7.80
2019-01-12T15:57:28.842Z,8.23
2019-01-12T16:00:33.173Z,8.70
2019-01-12T16:03:37.547Z,7.87
2019-01-12T16:06:41.919Z,6.27
2019-01-12T16:09:46.246Z,5.00
2019-01-12T16:12:50.591Z,8.23
2019-01-12T16:15:54.886Z,6.27
2019-01-12T16:18:59.141Z,9.23
2019-01-12T16:22:03.581Z,5.47
2019-01-12T16:25:08.101Z,4.87
2019-01-12T16:28:12.422Z,4.63
2019-01-12T16:31:16.750Z,5.07
2019-01-12T16:34:21.068Z,4.13
2019-01-12T16:37:25.346Z,6.80
2019-01-12T16:40:29.677Z,5.20
2019-01-12T16:43:33.968Z,3.77
2019-01-12T16:46:38.261Z,8.50
2019-01-12T16:49:42.528Z,8.60
2019-01-12T16:52:48.157Z,9.10
2019-01-12T16:55:52.469Z,6.80
2019-01-12T16:58:56.707Z,8.60
2019-01-12T17:02:01.026Z,9.23
2019-01-12T17:05:06.091Z,9.40
2019-01-12T17:08:10.582Z,12.83
2019-01-12T17:11:14.905Z,10.43
2019-01-12T17:14:19.191Z,13.07
2019-01-12T17:17:23.597Z,12.27
2019-01-12T17:20:28.923Z,13.27
2019-01-12T17:23:33.279Z,6.90
2019-01-12T17:26:37.616Z,8.40
2019-01-12T17:29:42.030Z,17.80
2019-01-12T17:32:46.339Z,11.93
2019-01-12T17:35:50.665Z,13.90
2019-01-12T17:38:54.949Z,12.77
2019-01-12T17:41:59.207Z,7.53
2019-01-12T17:45:03.510Z,10.50
2019-01-12T17:48:07.831Z,7.83
2019-01-12T17:51:12.101Z,11.30
2019-01-12T17:54:16.455Z,15.70
2019-01-12T17:57:20.752Z,18.70
2019-01-12T18:00:45.834Z,9.33
2019-01-12T18:03:50.230Z,17.13
2019-01-12T18:06:54.521Z,5.53
2019-01-12T18:09:58.887Z,12.70
2019-01-12T18:13:03.197Z,15.30
2019-01-12T18:16:07.546Z,10.93
2019-01-12T18:19:11.865Z,5.80
2019-01-12T18:22:16.205Z,7.63
2019-01-12T18:25:20.591Z,10.20
2019-01-12T18:28:24.945Z,6.30
2019-01-12T18:31:29.258Z,14.17
2019-01-12T18:34:33.520Z,11.00
2019-01-12T18:37:37.801Z,7.97
2019-01-12T18:40:42.150Z,8.33
2019-01-12T18:43:46.481Z,12.53
2019-01-12T18:46:50.805Z,10.67
2019-01-12T18:49:55.159Z,12.40
2019-01-12T18:52:59.515Z,10.80
2019-01-12T18:56:03.901Z,11.27
2019-01-12T18:59:08.147Z,9.53
2019-01-12T19:02:12.469Z,8.43
2019-01-12T19:05:16.760Z,8.07
2019-01-12T19:08:21.069Z,13.80
2019-01-12T19:11:25.386Z,9.20
2019-01-12T19:14:29.723Z,14.97
2019-01-12T19:17:34.041Z,11.73
2019-01-12T19:20:38.330Z,13.63
2019-01-12T19:23:42.582Z,11.47
2019-01-12T19:26:46.910Z,16.07
2019-01-12T19:29:51.244Z,10.47
2019-01-12T19:32:55.515Z,7.73
2019-01-12T19:35:59.903Z,11.30
2019-01-12T19:39:05.756Z,12.57
2019-01-12T19:42:10.072Z,6.93
2019-01-12T19:45:15.227Z,7.73
2019-01-12T19:48:19.555Z,11.60
2019-01-12T19:51:23.885Z,9.83
2019-01-12T19:54:28.216Z,8.70
2019-01-12T19:57:32.582Z,7.13
2019-01-12T20:00:37.810Z,7.40
2019-01-12T20:03:42.177Z,8.93
2019-01-12T20:06:46.605Z,8.80
2019-01-12T20:09:50.914Z,12.47
2019-01-12T20:12:55.615Z,14.27
2019-01-12T20:15:59.951Z,15.43
2019-01-12T20:19:04.460Z,12.20
2019-01-12T20:22:08.786Z,10.47
2019-01-12T20:25:15.921Z,16.17
2019-01-12T20:28:21.481Z,10.23
2019-01-12T20:31:34.221Z,15.33
2019-01-12T20:34:46.090Z,10.03
2019-01-12T20:38:31.235Z,7.43
2019-01-12T20:41:59.433Z,14.20
2019-01-12T20:46:05.840Z,13.33
2019-01-12T20:49:15.175Z,13.97
2019-01-12T20:52:42.821Z,10.70
2019-01-12T20:56:01.414Z,13.20
2019-01-12T20:59:44.672Z,7.67
2019-01-12T21:03:04.934Z,13.60
2019-01-12T21:06:44.821Z,11.73
2019-01-12T21:10:17.310Z,19.73
2019-01-12T21:13:51.246Z,19.00
2019-01-12T21:17:04.730Z,22.60
2019-01-12T21:20:12.119Z,9.37
2019-01-12T21:23:16.415Z,10.80
2019-01-12T21:26:20.752Z,15.47
2019-01-12T21:29:25.066Z,11.27
2019-01-12T21:32:29.355Z,12.03
2019-01-12T21:35:33.724Z,15.70
2019-01-12T21:38:39.246Z,10.63
2019-01-12T21:41:43.634Z,9.33
2019-01-12T21:44:47.931Z,9.93
2019-01-12T21:47:52.331Z,10.03
2019-01-12T21:50:56.619Z,14.87
2019-01-12T21:54:03.487Z,11.13
2019-01-12T21:57:19.636Z,13.67
2019-01-12T22:00:32.091Z,12.13
2019-01-12T22:04:04.846Z,11.17
2019-01-12T22:07:13.475Z,14.60
2019-01-12T22:10:19.256Z,11.20
2019-01-12T22:13:23.756Z,8.73
2019-01-12T22:16:28.069Z,9.00
2019-01-12T22:19:32.387Z,7.20
2019-01-12T22:22:36.728Z,12.93
2019-01-12T22:25:41.012Z,8.40
2019-01-12T22:28:45.409Z,6.20
2019-01-12T22:31:49.814Z,9.77
2019-01-12T22:34:54.124Z,10.40
2019-01-12T22:37:58.620Z,8.93
2019-01-12T22:41:02.905Z,8.33
2019-01-12T22:44:07.287Z,9.20
2019-01-12T22:47:11.626Z,15.23
2019-01-12T22:50:16.170Z,10.30
2019-01-12T22:53:20.492Z,8.10
2019-01-12T22:56:24.840Z,10.43
2019-01-12T22:59:29.154Z,10.33
2019-01-12T23:02:33.458Z,6.50
2019-01-12T23:05:37.776Z,12.67
2019-01-12T23:08:42.086Z,13.67
2019-01-12T23:11:46.404Z,10.80
2019-01-12T23:14:50.705Z,13.33
2019-01-12T23:17:55.023Z,12.23
2019-01-12T23:20:59.325Z,7.40
2019-01-12T23:24:03.631Z,10.93
2019-01-12T23:27:07.959Z,4.87
2019-01-12T23:30:13.075Z,8.20
2019-01-12T23:33:17.376Z,13.40
2019-01-12T23:36:21.749Z,12.30
2019-01-12T23:39:26.074Z,4.00
2019-01-12T23:42:30.427Z,8.43
2019-01-12T23:45:34.744Z,9.37
2019-01-12T23:48:39.100Z,7.80
2019-01-12T23:51:43.399Z,7.30
2019-01-12T23:54:47.743Z,8.10
2019-01-12T23:57:52.031Z,6.53
